Latest Weather Observations for Mangalore

IDV60801

Issued at 7:02 pm EST Saturday 30 July 2016 (issued every 30 minutes, with the page automatically refreshed every 10 minutes)

About weather observations | Map of weather stations | Latest weather observations for VIC | Other Formats
Station Details ID: 088109 Name: MANGALORE AIRPORT Lat: -36.89 Lon: 145.19 Height: 140.8 m
Data from the previous 72 hours. | See also: Recent months at Mangalore
Date/Time
EST
Temp
°C
App
Temp
°C
Dew
Point
°C
Rel
Hum
%
Delta-T
°C
Wind Press
QNH
hPa
Press
MSL
hPa
Rain since
9am
mm
Dir  Spd
km/h
Gust
km/h
Spd
kts
Gust
kts
30/07:00pm 10.0 5.0 8.1 88 0.9 NNE 24 30 13 16 1018.1 1018.5 0.0
30/06:30pm 10.1 4.7 8.2 88 0.9 NNE 26 35 14 19 1017.9 1018.3 0.0
30/06:00pm 10.1 5.1 8.2 88 0.9 NNE 24 32 13 17 1018.1 1018.5 0.0
30/05:30pm 10.1 5.1 8.2 88 0.9 NNE 24 33 13 18 1017.6 1018.0 0.0
30/05:00pm 10.1 5.9 8.2 88 0.9 NNE 20 28 11 15 1017.9 1018.3 0.0
30/04:30pm 10.1 5.8 8.0 87 1.0 NNE 20 26 11 14 1018.4 1018.8 0.0
30/04:00pm 10.2 6.0 8.3 88 0.9 NNE 20 28 11 15 1018.5 1018.9 0.0
30/03:30pm 10.2 6.0 8.3 88 0.9 NNE 20 24 11 13 1019.1 1019.4 0.0
30/03:00pm 10.2 5.6 8.1 87 1.0 NE 22 30 12 16 1019.3 1019.6 0.0
30/02:48pm 10.1 5.9 8.2 88 0.9 NNE 20 30 11 16 1019.4 1019.7 0.0
30/02:30pm 10.2 5.3 8.3 88 0.9 NNE 24 30 13 16 1019.4 1019.7 0.0
30/02:00pm 10.0 5.1 8.6 91 0.7 NNE 24 32 13 17 1019.9 1020.2 0.0
30/01:30pm 10.4 6.4 9.0 91 0.7 NNE 20 26 11 14 1020.4 1020.7 0.0
30/01:00pm 9.9 6.2 9.6 98 0.2 N 19 24 10 13 1021.3 1021.6 0.0
30/12:30pm 9.9 6.3 9.8 99 0.1 N 19 24 10 13 1021.7 1022.0 0.0
30/12:28pm 9.9 6.3 9.8 99 0.1 N 19 24 10 13 1021.7 1022.0 0.0
30/12:10pm 9.9 6.1 9.8 99 0.1 N 20 28 11 15 1021.8 1022.1 0.0
30/12:07pm 9.9 6.1 9.8 99 0.1 N 20 28 11 15 1021.7 1022.0 0.0
30/12:00pm 10.4 6.7 10.2 99 0.1 N 20 24 11 13 1021.7 1022.0 0.0
30/11:33am 10.2 6.5 10.1 99 0.1 N 20 30 11 16 1022.0 1022.3 0.0
30/11:30am 10.1 6.0 10.1 100 0.0 N 22 30 12 16 1022.0 1022.3 0.0
30/11:10am 10.0 6.4 10.0 100 0.0 N 19 26 10 14 1022.4 1022.7 0.0
30/11:00am 9.9 6.3 9.9 100 0.0 N 19 24 10 13 1022.6 1022.9 0.0
30/10:54am 10.0 7.2 10.0 100 0.0 N 15 22 8 12 1022.8 1023.1 0.0
30/10:49am 10.1 6.9 10.1 100 0.0 N 17 22 9 12 1022.9 1023.2 0.0
30/10:36am 9.9 6.7 9.9 100 0.0 N 17 24 9 13 1023.0 1023.3 0.0
30/10:30am 10.0 7.2 10.0 100 0.0 N 15 22 8 12 1023.0 1023.3 0.0
30/10:00am 10.0 6.4 10.0 100 0.0 N 19 24 10 13 1022.8 1023.1 0.0
30/09:30am 9.5 6.6 9.5 100 0.0 NNE 15 19 8 10 1022.7 1023.0 0.0
30/09:00am 9.1 6.4 9.1 100 0.0 N 13 17 7 9 1023.0 1023.3 0.8
30/08:30am 9.0 5.9 9.0 100 0.0 NNE 15 17 8 9 1023.1 1023.4 0.8
30/08:00am 9.0 6.3 9.0 100 0.0 NE 13 17 7 9 1022.9 1023.2 0.8
30/07:30am 9.0 7.1 9.0 100 0.0 N 9 11 5 6 1023.1 1023.4 0.8
30/07:00am 8.9 7.0 8.9 100 0.0 N 9 13 5 7 1023.0 1023.3 0.8
30/06:58am 8.9 7.0 8.9 100 0.0 N 9 13 5 7 1022.9 1023.2 0.8
30/06:47am 8.9 7.0 8.9 100 0.0 N 9 11 5 6 1022.9 1023.2 0.8
30/06:32am 8.9 7.3 8.9 100 0.0 N 7 9 4 5 1022.8 1023.1 0.8
30/06:30am 8.9 7.3 8.9 100 0.0 N 7 11 4 6 1022.8 1023.1 0.8
30/06:14am 9.0 7.1 9.0 100 0.0 N 9 11 5 6 1022.6 1022.9 0.8
30/06:00am 9.0 7.5 9.0 100 0.0 N 7 9 4 5 1022.6 1022.9 0.8
30/05:49am 9.0 7.5 9.0 100 0.0 N 7 9 4 5 1022.5 1022.8 0.8
30/05:30am 9.0 7.1 9.0 100 0.0 NNW 9 13 5 7 1022.6 1022.9 0.8
30/05:00am 9.1 7.2 9.1 100 0.0 NNW 9 13 5 7 1022.6 1022.9 0.8
30/04:44am 9.2 7.3 9.2 100 0.0 N 9 13 5 7 1022.6 1022.9 0.8
30/04:30am 9.2 7.3 9.2 100 0.0 N 9 13 5 7 1022.6 1022.9 0.8
30/04:17am 9.2 7.3 9.2 100 0.0 N 9 11 5 6 1022.4 1022.7 0.8
30/04:00am 9.3 7.1 9.3 100 0.0 N 11 15 6 8 1022.3 1022.6 0.8
30/03:30am 9.4 6.8 9.4 100 0.0 NNW 13 17 7 9 1022.3 1022.6 0.8
30/03:27am 9.4 6.8 9.4 100 0.0 N 13 17 7 9 1022.3 1022.6 0.8
30/03:25am 9.4 6.8 9.4 100 0.0 N 13 17 7 9 1022.3 1022.6 0.8
30/03:16am 9.3 6.7 9.3 100 0.0 N 13 15 7 8 1022.3 1022.6 0.8
30/03:00am 9.5 7.3 9.5 100 0.0 N 11 15 6 8 1022.5 1022.8 0.8
30/02:52am 9.5 7.3 9.5 100 0.0 N 11 15 6 8 1022.6 1022.9 0.8
30/02:30am 9.6 7.8 9.6 100 0.0 N 9 11 5 6 1022.7 1023.0 0.8
30/02:10am 9.6 7.5 9.6 100 0.0 N 11 13 6 7 1022.8 1023.1 0.8
30/02:00am 9.6 7.8 9.6 100 0.0 NNW 9 15 5 8 1022.8 1023.1 0.8
30/01:30am 9.6 8.2 9.6 100 0.0 NNW 7 9 4 5 1022.8 1023.1 0.8
30/01:11am 9.6 8.2 9.6 100 0.0 NNW 7 9 4 5 1022.8 1023.1 0.8
30/01:00am 9.6 8.2 9.6 100 0.0 NNW 7 9 4 5 1022.8 1023.1 0.8
30/12:42am 9.7 8.5 9.7 100 0.0 NNW 6 7 3 4 1022.9 1023.2 0.8
30/12:30am 9.8 8.5 9.8 100 0.0 NNW 7 9 4 5 1022.8 1023.1 0.8
30/12:06am 9.8 8.7 9.8 100 0.0 NNW 6 7 3 4 1022.9 1023.2 0.8
30/12:00am 9.8 8.5 9.8 100 0.0 NNW 7 11 4 6 1023.0 1023.3 0.8
 
Date/Time
EST
Temp
°C
App
Temp
°C
Dew
Point
°C
Rel
Hum
%
Delta-T
°C
Wind Press
QNH
hPa
Press
MSL
hPa
Rain since
9am
mm
Dir  Spd
km/h
Gust
km/h
Spd
kts
Gust
kts
29/11:44pm 9.9 8.2 9.9 100 0.0 NNW 9 13 5 7 1023.2 1023.5 0.8
29/11:30pm 9.9 8.2 9.9 100 0.0 NNW 9 13 5 7 1023.3 1023.6 0.8
29/11:00pm 9.8 7.3 9.8 100 0.0 NW 13 15 7 8 1023.2 1023.5 0.8
29/10:30pm 9.7 8.0 9.7 100 0.0 NNW 9 13 5 7 1023.1 1023.4 0.8
29/10:00pm 9.7 8.3 9.7 100 0.0 N 7 9 4 5 1023.1 1023.4 0.8
29/09:30pm 9.8 8.1 9.8 100 0.0 N 9 11 5 6 1023.0 1023.3 0.8
29/09:00pm 9.8 8.1 9.8 100 0.0 NNW 9 13 5 7 1022.8 1023.1 0.8
29/08:47pm 9.8 8.5 9.8 100 0.0 NNW 7 9 4 5 1022.9 1023.2 0.8
29/08:30pm 9.8 8.5 9.8 100 0.0 NW 7 11 4 6 1022.9 1023.2 0.8
29/08:00pm 9.7 7.6 9.7 100 0.0 NNW 11 17 6 9 1022.7 1023.0 0.8
29/07:30pm 9.7 7.6 9.7 100 0.0 NNW 11 17 6 9 1022.6 1022.9 0.6
29/07:00pm 9.8 7.7 9.8 100 0.0 NNW 11 15 6 8 1022.4 1022.7 0.6
29/06:30pm 9.9 7.8 9.9 100 0.0 NNW 11 17 6 9 1022.2 1022.5 0.4
29/06:06pm 10.0 8.0 10.0 100 0.0 N 11 15 6 8 1021.8 1022.1 0.0
29/06:00pm 10.0 8.0 10.0 100 0.0 NNW 11 17 6 9 1021.8 1022.1 0.0
29/05:57pm 10.0 8.0 10.0 100 0.0 NNW 11 17 6 9 1021.8 1022.1 0.0
29/05:30pm 10.1 7.7 10.0 99 0.1 NNW 13 17 7 9 1021.7 1022.0 0.0
29/05:00pm 10.2 7.8 10.1 99 0.1 NNW 13 19 7 10 1021.7 1022.0 0.0
29/04:54pm 10.3 9.0 10.1 99 0.1 NNW 7 13 4 7 1021.7 1022.0 0.0
29/04:46pm 10.3 9.0 10.1 99 0.1 NNW 7 7 4 4 1021.7 1022.0 0.0
29/04:30pm 10.2 8.9 10.1 99 0.1 NNW 7 9 4 5 1021.6 1021.9 0.0
29/04:00pm 10.5 8.8 9.7 95 0.4 NNW 9 11 5 6 1021.5 1021.8 0.0
29/03:46pm 10.8 9.0 9.6 92 0.6 NNW 9 13 5 7 1021.7 1022.0 0.0
29/03:30pm 10.9 7.9 9.3 90 0.8 NNW 15 20 8 11 1021.7 1022.0 0.0
29/03:21pm 11.0 8.4 9.4 90 0.8 NW 13 19 7 10 1021.6 1021.9 0.0
29/03:02pm 10.8 7.5 9.6 92 0.6 NNW 17 22 9 12 1021.5 1021.8 0.0
29/03:01pm 10.8 7.5 9.6 92 0.6 NNW 17 22 9 12 1021.6 1021.9 0.0
29/03:00pm 10.8 7.9 9.6 92 0.6 NNW 15 20 8 11 1021.5 1021.8 0.0
29/02:48pm 10.8 8.2 9.4 91 0.7 NW 13 20 7 11 1021.5 1021.8 0.0
29/02:42pm 11.0 8.4 9.4 90 0.8 NW 13 17 7 9 1021.4 1021.7 0.0
29/02:30pm 10.8 7.1 9.4 91 0.7 NW 19 24 10 13 1021.5 1021.8 0.0
29/02:00pm 10.8 7.8 9.4 91 0.7 NW 15 20 8 11 1021.7 1022.0 0.0
29/01:39pm 10.8 7.5 9.6 92 0.6 NW 17 22 9 12 1021.7 1022.0 0.0
29/01:30pm 10.6 6.8 9.2 91 0.7 NW 19 24 10 13 1021.9 1022.2 0.0
29/01:00pm 10.8 7.7 8.9 88 0.9 NW 15 19 8 10 1022.4 1022.7 0.0
29/12:58pm 10.8 7.3 8.7 87 1.0 NW 17 20 9 11 1022.4 1022.7 0.0
29/12:35pm 10.4 8.0 10.1 98 0.2 N 13 19 7 10 1022.5 1022.8 0.0
29/12:30pm 10.2 7.3 9.7 97 0.3 N 15 20 8 11 1022.5 1022.8 0.0
29/12:18pm 10.2 7.2 9.3 94 0.5 NNW 15 19 8 10 1022.8 1023.1 0.0
29/12:04pm 10.3 7.0 9.4 94 0.5 NNW 17 22 9 12 1023.2 1023.5 0.0
29/12:01pm 10.3 7.0 9.5 95 0.4 NNW 17 22 9 12 1023.3 1023.6 0.0
29/12:00pm 10.4 7.1 9.6 95 0.4 NNW 17 22 9 12 1023.2 1023.5 0.0
29/11:30am 10.1 6.1 9.0 93 0.5 NW 20 26 11 14 1023.5 1023.9 0.0
29/11:06am 10.7 6.8 8.8 88 0.9 NW 19 26 10 14 1023.6 1024.0 0.0
29/11:01am 10.7 6.6 8.6 87 1.0 NW 20 28 11 15 1023.8 1024.2 0.0
29/11:00am 10.5 5.9 8.3 86 1.1 NW 22 28 12 15 1023.8 1024.2 0.0
29/10:30am 10.4 6.2 7.5 82 1.4 NW 19 26 10 14 1024.0 1024.4 0.0
29/10:00am 10.1 5.7 7.3 83 1.3 NW 20 30 11 16 1024.3 1024.7 0.0
29/09:30am 10.2 6.6 6.9 80 1.6 NNW 15 22 8 12 1024.3 1024.7 0.0
29/09:00am 9.9 5.9 6.8 81 1.5 NNW 17 24 9 13 1024.0 1024.4 0.0
29/08:30am 9.6 6.4 6.9 83 1.3 N 13 20 7 11 1024.0 1024.4 0.0
29/08:00am 9.0 5.8 7.0 87 0.9 N 13 17 7 9 1023.9 1024.3 0.0
29/07:30am 8.9 5.4 7.0 88 0.9 N 15 20 8 11 1023.9 1024.3 0.0
29/07:00am 8.9 5.4 7.0 88 0.9 NNW 15 20 8 11 1023.8 1024.2 0.0
29/06:30am 8.7 6.0 7.5 92 0.6 NNW 11 15 6 8 1023.8 1024.2 0.0
29/06:00am 8.8 6.5 7.4 91 0.7 NW 9 13 5 7 1023.7 1024.1 0.0
29/05:30am 9.0 5.9 7.3 89 0.8 NW 13 17 7 9 1023.6 1024.0 0.0
29/05:00am 9.2 6.1 7.2 87 0.9 NNW 13 17 7 9 1023.5 1023.9 0.0
29/04:30am 9.2 6.5 7.5 89 0.8 NNW 11 15 6 8 1023.3 1023.6 0.0
29/04:00am 9.3 6.3 7.7 90 0.8 N 13 19 7 10 1023.1 1023.4 0.0
29/03:30am 9.4 6.1 8.2 92 0.6 N 15 19 8 10 1023.2 1023.5 0.0
29/03:00am 9.4 7.0 8.6 95 0.4 N 11 17 6 9 1023.6 1024.0 0.0
29/02:30am 9.2 6.9 8.9 98 0.1 N 11 13 6 7 1023.8 1024.2 0.0
29/02:00am 9.1 6.7 8.8 98 0.1 N 11 13 6 7 1023.8 1024.2 0.0
29/01:30am 9.2 6.4 8.7 97 0.2 N 13 17 7 9 1023.8 1024.2 0.0
29/01:00am 9.2 6.5 8.9 98 0.1 N 13 17 7 9 1023.8 1024.2 0.0
29/12:30am 9.1 7.1 8.8 98 0.1 NNE 9 13 5 7 1024.1 1024.5 0.0
29/12:00am 9.1 7.1 8.8 98 0.1 NNE 9 13 5 7 1024.4 1024.8 0.0
 
Date/Time
EST
Temp
°C
App
Temp
°C
Dew
Point
°C
Rel
Hum
%
Delta-T
°C
Wind Press
QNH
hPa
Press
MSL
hPa
Rain since
9am
mm
Dir  Spd
km/h
Gust
km/h
Spd
kts
Gust
kts
28/11:30pm 9.2 6.9 8.9 98 0.1 NE 11 15 6 8 1024.4 1024.8 0.0
28/11:00pm 9.3 6.9 8.8 97 0.2 NE 11 13 6 7 1024.6 1025.0 0.0
28/10:30pm 9.3 6.9 8.8 97 0.2 NE 11 13 6 7 1024.7 1025.1 0.0
28/10:00pm 9.4 7.1 8.9 97 0.2 NNE 11 13 6 7 1024.9 1025.3 0.0
28/09:30pm 9.4 7.4 8.5 94 0.4 NNE 9 11 5 6 1025.0 1025.4 0.0
28/09:00pm 9.7 7.2 8.1 90 0.8 N 11 15 6 8 1025.2 1025.6 0.0
28/08:30pm 9.9 7.0 8.2 89 0.8 N 13 15 7 8 1025.2 1025.6 0.0
28/08:00pm 10.0 7.1 8.1 88 0.9 N 13 17 7 9 1025.2 1025.6 0.0
28/07:30pm 10.1 6.8 8.0 87 1.0 N 15 19 8 10 1025.2 1025.6 0.0
28/07:00pm 10.1 7.2 8.0 87 1.0 N 13 17 7 9 1025.3 1025.7 0.0
28/06:30pm 10.1 7.2 8.0 87 1.0 N 13 17 7 9 1025.1 1025.5 0.0
28/06:00pm 10.1 7.9 7.9 86 1.1 N 9 11 5 6 1024.7 1025.1 0.0
28/05:30pm 10.5 7.6 8.1 85 1.2 N 13 17 7 9 1024.6 1025.0 0.0
28/05:00pm 10.8 8.3 8.0 83 1.4 NNW 11 13 6 7 1024.6 1025.0 0.0
28/04:30pm 11.1 9.2 7.6 79 1.7 NNW 7 9 4 5 1024.6 1025.0 0.0
28/04:00pm 11.3 9.3 7.2 76 2.0 NW 7 11 4 6 1024.5 1024.9 0.0
28/03:30pm 11.6 9.2 7.1 74 2.2 NW 9 15 5 8 1024.7 1025.1 0.0
28/03:00pm 11.5 9.0 6.6 72 2.3 WNW 9 11 5 6 1024.6 1025.0 0.0
28/02:30pm 11.5 8.6 6.6 72 2.3 NW 11 17 6 9 1024.5 1024.9 0.0
28/02:00pm 11.4 9.4 7.1 75 2.1 NW 7 17 4 9 1024.6 1025.0 0.0
28/01:30pm 11.4 8.2 6.7 73 2.2 NW 13 17 7 9 1024.9 1025.3 0.0
28/01:00pm 10.4 7.4 7.8 84 1.3 N 13 19 7 10 1025.1 1025.5 0.0
28/12:56pm 10.4 7.4 7.8 84 1.3 N 13 19 7 10 1025.1 1025.5 0.0
28/12:30pm 10.4 7.5 8.2 86 1.1 NNE 13 17 7 9 1025.5 1025.9 0.0
28/12:00pm 9.8 7.0 8.4 91 0.7 NE 13 17 7 9 1025.9 1026.3 0.0
28/11:30am 9.5 7.0 8.1 91 0.7 NE 11 15 6 8 1026.5 1026.8 0.0
28/11:03am 9.2 6.6 7.8 91 0.7 NNE 11 13 6 7 1026.8 1027.1 0.0
28/11:00am 9.0 6.4 7.6 91 0.7 NNE 11 13 6 7 1026.7 1027.0 0.0
28/10:36am 8.5 6.2 7.3 92 0.6 NNE 9 13 5 7 1026.9 1027.2 0.0
28/10:30am 8.4 6.1 7.3 93 0.5 NNE 9 11 5 6 1026.9 1027.2 0.0
28/10:00am 7.9 5.5 6.8 93 0.5 NNE 9 11 5 6 1026.8 1027.1 0.0
28/09:54am 7.7 5.6 6.6 93 0.5 NNE 7 13 4 7 1026.8 1027.1 0.0
28/09:30am 7.7 5.0 7.3 97 0.2 NE 11 15 6 8 1026.3 1026.6 0.0
28/09:00am 7.0 3.8 6.9 99 0.0 NE 13 17 7 9 1025.9 1026.3 0.2
28/08:30am 6.6 4.1 6.5 99 0.0 NE 9 11 5 6 1026.3 1026.6 0.2
28/08:00am 6.3 3.7 6.2 99 0.0 NE 9 13 5 7 1026.2 1026.5 0.2
28/07:30am 6.1 3.1 6.0 99 0.0 N 11 13 6 7 1025.7 1026.1 0.2
28/07:00am 5.9 3.2 5.8 99 0.0 WNW 9 11 5 6 1025.5 1025.9 0.2
28/06:30am 5.6 3.8 5.5 99 0.0 NW 4 7 2 4 1025.1 1025.5 0.2
28/06:00am 5.4 3.2 5.3 99 0.0 NW 6 7 3 4 1024.8 1025.2 0.2
28/05:30am 5.1 2.8 5.0 99 0.0 WNW 6 7 3 4 1024.3 1024.7 0.2
28/05:00am 4.4 3.1 4.3 99 0.0 CALM 0 6 0 3 1024.1 1024.5 0.2
28/04:30am 3.6 0.5 3.5 99 0.0 WNW 9 9 5 5 1023.9 1024.3 0.2
28/04:00am 4.0 1.8 3.6 97 0.2 WNW 4 7 2 4 1023.9 1024.3 0.2
28/03:30am 4.3 1.8 3.6 95 0.3 WNW 6 9 3 5 1023.9 1024.3 0.2
28/03:00am 5.1 2.1 3.9 92 0.5 WNW 9 11 5 6 1023.9 1024.3 0.2
28/02:30am 6.2 3.8 4.5 89 0.7 WNW 6 7 3 4 1024.2 1024.6 0.2
28/02:00am 6.3 3.9 4.3 87 0.9 WNW 6 7 3 4 1024.2 1024.6 0.2
28/01:30am 7.2 4.3 4.7 84 1.1 WNW 9 11 5 6 1024.0 1024.4 0.2
28/01:00am 7.4 4.9 4.7 83 1.2 WNW 7 11 4 6 1024.0 1024.4 0.2
28/12:30am 7.6 5.1 4.6 81 1.3 WNW 7 11 4 6 1023.8 1024.2 0.2
28/12:00am 7.3 4.9 5.1 86 1.0 WNW 7 9 4 5 1023.6 1024.0 0.2
 
Date/Time
EST
Temp
°C
App
Temp
°C
Dew
Point
°C
Rel
Hum
%
Delta-T
°C
Wind Press
QNH
hPa
Press
MSL
hPa
Rain since
9am
mm
Dir  Spd
km/h
Gust
km/h
Spd
kts
Gust
kts
27/11:30pm 6.6 3.6 4.1 84 1.1 WNW 9 11 5 6 1023.4 1023.7 0.2
27/11:00pm 7.1 4.2 4.8 85 1.0 WNW 9 11 5 6 1023.3 1023.6 0.2
27/10:30pm 6.5 3.4 3.8 83 1.2 WNW 9 9 5 5 1023.4 1023.7 0.2
27/10:00pm 7.3 4.3 3.9 79 1.5 WNW 9 11 5 6 1023.3 1023.6 0.2
27/09:30pm 8.7 4.6 4.3 74 1.9 WNW 15 19 8 10 1023.5 1023.9 0.2
27/09:00pm 9.0 5.2 4.0 71 2.2 W 13 19 7 10 1023.6 1024.0 0.2
27/08:30pm 9.0 4.9 4.4 73 2.0 WSW 15 22 8 12 1023.3 1023.6 0.2
27/08:00pm 8.9 5.2 4.3 73 2.0 W 13 15 7 8 1022.7 1023.0 0.2
27/07:30pm 8.4 5.5 4.6 77 1.7 W 9 11 5 6 1022.1 1022.4 0.2

Other Formats:

Comma delimited format used in spreadsheet applications
http://www.bom.gov.au/fwo/IDV60801/IDV60801.94874.axf

JavaScript Object Notation format (JSON) in row-major order
http://www.bom.gov.au/fwo/IDV60801/IDV60801.94874.json